createdAt,value
2018-06-27T06:19:44.108Z,1628.00
2018-06-27T06:20:42.207Z,1620.00
2018-06-27T06:22:35.961Z,1628.00
2018-06-27T06:23:36.478Z,1644.00
2018-06-27T06:25:29.924Z,1648.00
2018-06-27T06:26:29.428Z,1664.00
2018-06-27T06:28:24.077Z,1680.00
2018-06-27T06:29:24.748Z,1692.00
2018-06-27T06:31:18.878Z,1692.00
2018-06-27T06:32:18.926Z,1688.00
2018-06-27T06:34:13.410Z,1692.00
2018-06-27T06:35:15.132Z,1704.00
2018-06-27T06:37:07.642Z,1720.00
2018-06-27T06:38:08.628Z,1728.00
2018-06-27T06:40:01.785Z,1720.00
2018-06-27T06:41:04.492Z,1728.00
2018-06-27T06:42:56.049Z,1744.00
2018-06-27T06:43:56.013Z,1748.00
2018-06-27T06:45:50.809Z,1756.00
2018-06-27T06:46:50.756Z,1760.00
2018-06-27T06:48:45.280Z,1780.00
2018-06-27T06:49:45.475Z,1772.00
2018-06-27T06:51:40.044Z,1844.00
2018-06-27T06:52:39.341Z,1840.00
2018-06-27T06:54:34.363Z,1836.00
2018-06-27T06:55:34.107Z,1840.00
2018-06-27T06:57:28.645Z,1844.00
2018-06-27T06:58:28.175Z,1840.00
2018-06-27T07:00:23.218Z,1856.00
2018-06-27T07:01:23.272Z,1860.00
2018-06-27T07:03:17.261Z,1852.00
2018-06-27T07:04:18.878Z,1840.00
2018-06-27T07:06:12.014Z,1876.00
2018-06-27T07:07:11.355Z,1872.00
2018-06-27T07:09:06.440Z,1884.00
2018-06-27T07:10:05.790Z,1860.00
2018-06-27T07:12:01.415Z,1888.00
2018-06-27T07:12:59.866Z,1900.00
2018-06-27T07:14:53.629Z,1884.00
2018-06-27T07:15:54.369Z,1876.00
2018-06-27T07:17:49.238Z,1872.00
2018-06-27T07:18:48.008Z,1872.00
2018-06-27T07:20:41.906Z,1868.00
2018-06-27T07:21:42.422Z,1864.00
2018-06-27T07:23:36.841Z,1880.00
2018-06-27T07:24:36.256Z,1884.00
2018-06-27T07:26:30.383Z,1908.00
2018-06-27T07:27:30.834Z,1920.00
2018-06-27T07:29:25.828Z,1912.00
2018-06-27T07:30:25.782Z,1916.00
2018-06-27T07:32:19.622Z,1912.00
2018-06-27T07:33:19.078Z,1944.00
2018-06-27T07:35:13.750Z,1944.00
2018-06-27T07:36:13.792Z,1952.00
2018-06-27T07:38:07.464Z,1952.00
2018-06-27T07:39:07.929Z,1944.00
2018-06-27T07:41:02.161Z,1956.00
2018-06-27T07:42:04.445Z,1956.00
2018-06-27T07:43:56.436Z,1936.00
2018-06-27T07:44:56.676Z,1944.00
2018-06-27T07:46:50.996Z,1896.00
2018-06-27T07:47:50.433Z,1896.00
2018-06-27T07:49:45.873Z,1860.00
2018-06-27T07:50:44.988Z,1804.00
2018-06-27T07:52:38.835Z,1780.00
2018-06-27T07:53:38.899Z,1836.00
2018-06-27T07:54:38.736Z,1852.00
2018-06-27T07:55:38.848Z,1948.00
2018-06-27T07:56:38.321Z,1984.00
2018-06-27T07:57:40.150Z,2032.00
2018-06-27T07:58:38.834Z,2036.00
2018-06-27T07:59:38.336Z,2064.00
2018-06-27T08:00:38.837Z,2112.00
2018-06-27T08:01:39.218Z,2160.00
2018-06-27T08:02:38.804Z,2152.00
2018-06-27T08:03:38.846Z,2192.00
2018-06-27T08:04:38.329Z,2224.00
2018-06-27T08:05:38.658Z,2256.00
2018-06-27T08:06:38.879Z,2236.00
2018-06-27T08:07:38.841Z,2248.00
2018-06-27T08:08:40.884Z,2276.00
2018-06-27T08:09:38.890Z,2260.00
2018-06-27T08:10:38.848Z,2268.00
2018-06-27T08:11:38.867Z,2344.00
2018-06-27T08:12:38.192Z,2384.00
2018-06-27T08:13:38.841Z,2412.00
2018-06-27T08:14:40.040Z,2396.00
2018-06-27T08:15:40.945Z,2408.00
2018-06-27T08:16:38.347Z,2356.00
2018-06-27T08:17:38.940Z,2332.00
2018-06-27T08:18:38.845Z,2288.00
2018-06-27T08:19:38.711Z,2212.00
2018-06-27T08:20:42.820Z,2148.00
2018-06-27T08:21:38.849Z,2060.00
2018-06-27T08:22:38.678Z,2004.00
2018-06-27T08:23:40.968Z,1928.00
2018-06-27T08:24:38.952Z,1884.00
2018-06-27T08:25:40.410Z,1948.00
2018-06-27T08:26:41.614Z,2028.00
2018-06-27T08:27:39.280Z,2092.00
2018-06-27T08:28:38.853Z,2192.00
2018-06-27T08:29:38.867Z,1928.00
2018-06-27T08:30:38.881Z,2016.00
2018-06-27T08:31:38.854Z,2172.00
2018-06-27T08:32:39.196Z,2204.00
2018-06-27T08:33:38.823Z,2236.00
2018-06-27T08:34:38.644Z,2224.00
2018-06-27T08:35:38.826Z,2256.00
2018-06-27T08:36:38.873Z,2272.00
2018-06-27T08:37:38.859Z,2300.00
2018-06-27T08:38:38.760Z,2312.00
2018-06-27T08:39:38.705Z,2324.00
2018-06-27T08:40:42.911Z,2328.00
2018-06-27T08:41:38.855Z,2348.00
2018-06-27T08:42:38.881Z,2360.00
2018-06-27T08:43:38.698Z,2304.00
2018-06-27T08:44:38.760Z,2308.00
2018-06-27T08:45:38.826Z,2320.00
2018-06-27T08:46:39.426Z,2332.00
2018-06-27T08:47:39.047Z,2336.00
2018-06-27T08:48:38.523Z,2352.00
2018-06-27T08:49:39.985Z,2364.00
2018-06-27T08:50:40.081Z,2364.00
2018-06-27T08:51:38.601Z,2384.00
2018-06-27T08:52:38.227Z,2392.00
2018-06-27T08:53:38.870Z,2396.00
2018-06-27T08:54:38.575Z,2392.00
2018-06-27T08:56:38.822Z,2348.00
2018-06-27T08:57:40.017Z,2344.00
2018-06-27T08:58:38.418Z,2348.00
2018-06-27T08:59:38.684Z,2368.00
2018-06-27T09:00:39.210Z,2384.00
2018-06-27T09:01:38.459Z,2408.00
2018-06-27T09:02:38.697Z,2412.00
2018-06-27T09:03:41.075Z,2420.00
2018-06-27T09:04:38.357Z,2440.00
2018-06-27T09:05:38.554Z,2440.00
2018-06-27T09:06:38.883Z,2456.00
2018-06-27T09:07:38.273Z,2480.00
2018-06-27T09:08:38.876Z,2516.00
2018-06-27T09:09:38.677Z,2544.00
2018-06-27T09:10:38.603Z,2540.00
2018-06-27T09:11:38.326Z,2536.00
2018-06-27T09:12:39.184Z,2512.00
2018-06-27T09:13:38.245Z,2532.00
2018-06-27T09:14:39.212Z,2572.00
2018-06-27T09:15:39.521Z,2608.00
2018-06-27T09:16:38.881Z,2628.00
2018-06-27T09:17:38.764Z,2620.00
2018-06-27T09:18:39.317Z,2600.00
2018-06-27T09:19:41.103Z,2580.00
2018-06-27T09:20:38.560Z,2584.00
2018-06-27T09:21:38.834Z,2588.00
2018-06-27T09:22:38.754Z,2628.00
2018-06-27T09:23:38.771Z,2652.00
2018-06-27T09:24:39.069Z,2688.00
2018-06-27T09:25:38.358Z,2732.00
2018-06-27T09:26:38.950Z,2724.00
2018-06-27T09:27:39.885Z,2756.00
2018-06-27T09:28:38.827Z,2764.00
2018-06-27T09:29:58.990Z,2788.00
2018-06-27T09:30:40.833Z,2792.00
2018-06-27T09:31:39.062Z,2824.00
2018-06-27T09:32:39.357Z,2868.00
2018-06-27T09:33:39.368Z,2916.00
2018-06-27T09:34:38.671Z,2944.00
2018-06-27T09:35:45.904Z,2952.00
2018-06-27T09:36:38.742Z,2944.00
2018-06-27T09:37:38.768Z,2936.00
2018-06-27T09:38:38.896Z,2964.00
2018-06-27T09:39:38.683Z,2996.00
2018-06-27T09:40:38.407Z,3064.00
2018-06-27T09:41:39.010Z,3092.00
2018-06-27T09:42:38.849Z,3084.00
2018-06-27T09:43:38.606Z,3140.00
2018-06-27T09:44:38.677Z,3224.00
2018-06-27T09:45:39.132Z,3368.00
2018-06-27T09:46:38.836Z,3604.00
2018-06-27T09:47:38.837Z,3492.00
2018-06-27T09:48:39.338Z,3532.00
2018-06-27T09:49:38.896Z,3340.00
2018-06-27T09:50:38.699Z,3244.00
2018-06-27T09:51:38.348Z,3244.00
2018-06-27T09:52:38.651Z,3296.00
2018-06-27T09:53:38.977Z,3388.00
2018-06-27T09:54:38.361Z,3384.00
2018-06-27T09:55:38.875Z,3292.00
2018-06-27T09:56:39.207Z,3320.00
2018-06-27T09:57:38.383Z,3376.00
2018-06-27T09:58:38.844Z,3464.00
2018-06-27T09:59:39.260Z,3560.00
2018-06-27T10:00:38.266Z,3684.00
2018-06-27T10:01:38.880Z,3736.00
2018-06-27T10:02:38.861Z,3700.00
2018-06-27T10:03:38.603Z,3884.00
2018-06-27T10:04:38.883Z,4320.00
2018-06-27T10:05:38.850Z,4404.00
2018-06-27T10:06:38.347Z,4016.00
2018-06-27T10:07:38.945Z,3820.00
2018-06-27T10:08:38.978Z,3748.00
2018-06-27T10:09:38.701Z,3636.00
2018-06-27T10:10:39.704Z,3532.00
2018-06-27T10:11:39.011Z,3556.00
2018-06-27T10:12:37.301Z,3624.00
2018-06-27T10:13:38.808Z,3712.00
2018-06-27T10:14:39.361Z,3756.00
2018-06-27T10:15:38.774Z,4208.00
2018-06-27T10:16:40.854Z,4308.00
2018-06-27T10:17:39.230Z,4128.00
2018-06-27T10:18:39.991Z,4032.00
2018-06-27T10:19:38.592Z,4064.00
2018-06-27T10:20:39.912Z,4084.00
2018-06-27T10:21:38.272Z,4072.00
2018-06-27T10:22:39.029Z,3960.00
2018-06-27T10:23:40.291Z,3924.00
2018-06-27T10:24:38.362Z,3956.00
2018-06-27T10:25:38.973Z,3848.00
2018-06-27T10:26:38.858Z,3908.00
2018-06-27T10:27:39.368Z,3856.00
2018-06-27T10:28:39.579Z,3848.00
2018-06-27T10:29:38.798Z,3748.00
2018-06-27T10:30:38.889Z,3800.00
2018-06-27T10:31:38.864Z,3976.00
2018-06-27T10:32:39.268Z,4096.00
2018-06-27T10:33:39.250Z,3996.00
2018-06-27T10:34:38.859Z,3880.00
2018-06-27T10:35:38.989Z,3876.00
2018-06-27T10:36:39.041Z,4168.00
2018-06-27T10:37:39.388Z,4348.00
2018-06-27T10:38:39.360Z,4404.00
2018-06-27T10:39:38.815Z,4404.00
2018-06-27T10:40:38.847Z,4472.00
2018-06-27T10:41:39.826Z,4356.00
2018-06-27T10:42:38.607Z,4512.00
2018-06-27T10:43:38.924Z,4352.00
2018-06-27T10:44:39.242Z,4172.00
2018-06-27T10:45:39.728Z,4128.00
2018-06-27T10:46:41.437Z,4788.00
2018-06-27T10:47:38.862Z,4600.00
2018-06-27T10:48:39.026Z,4288.00
2018-06-27T10:49:39.293Z,4396.00
2018-06-27T10:50:38.645Z,4656.00
2018-06-27T10:51:38.866Z,4724.00
2018-06-27T10:52:38.866Z,4660.00
2018-06-27T10:53:39.017Z,4536.00
2018-06-27T10:54:37.440Z,4640.00
2018-06-27T10:55:38.906Z,5016.00
2018-06-27T10:56:39.263Z,5116.00
2018-06-27T10:57:38.394Z,5188.00
2018-06-27T10:58:39.218Z,5120.00
2018-06-27T10:59:38.450Z,5144.00
2018-06-27T11:00:38.927Z,4880.00
2018-06-27T11:01:38.574Z,4628.00
2018-06-27T11:02:38.914Z,4504.00
2018-06-27T11:03:38.284Z,4336.00
2018-06-27T11:04:38.709Z,4464.00
2018-06-27T11:05:38.934Z,4560.00
2018-06-27T11:06:38.894Z,4692.00
2018-06-27T11:07:38.836Z,4556.00
2018-06-27T11:08:39.224Z,4396.00
2018-06-27T11:09:38.524Z,4292.00
2018-06-27T11:10:39.851Z,4332.00
2018-06-27T11:11:38.650Z,3720.00
2018-06-27T11:12:38.377Z,4620.00
2018-06-27T11:13:38.916Z,5656.00
2018-06-27T11:14:39.325Z,7376.00
2018-06-27T11:15:41.442Z,6360.00
2018-06-27T11:16:38.929Z,6596.00
2018-06-27T11:17:41.335Z,7128.00
2018-06-27T11:18:38.868Z,6064.00
2018-06-27T11:19:38.929Z,4968.00
2018-06-27T11:20:40.978Z,5640.00
2018-06-27T11:21:38.845Z,7040.00
2018-06-27T11:22:38.917Z,7048.00
2018-06-27T11:23:41.205Z,6668.00
2018-06-27T11:24:38.836Z,6364.00
2018-06-27T11:25:38.922Z,6108.00
2018-06-27T11:26:37.489Z,5748.00
2018-06-27T11:27:38.813Z,5632.00
2018-06-27T11:28:38.542Z,5784.00
2018-06-27T11:29:39.255Z,5992.00
2018-06-27T11:30:38.432Z,5072.00
2018-06-27T11:31:40.005Z,6456.00
2018-06-27T11:32:38.925Z,7096.00
2018-06-27T11:33:39.784Z,6844.00
2018-06-27T11:34:46.860Z,7784.00
2018-06-27T11:35:41.039Z,8780.00
2018-06-27T11:36:38.953Z,8068.00
2018-06-27T11:37:38.975Z,8468.00
2018-06-27T11:38:38.642Z,8924.00
2018-06-27T11:40:38.150Z,7452.00
2018-06-27T11:42:33.680Z,7060.00
2018-06-27T11:43:33.800Z,7372.00
2018-06-27T11:45:29.119Z,6796.00
2018-06-27T11:46:27.823Z,6352.00
2018-06-27T11:48:22.672Z,6904.00
2018-06-27T11:49:22.572Z,6764.00
2018-06-27T11:51:16.907Z,6736.00
2018-06-27T11:52:19.272Z,6612.00
2018-06-27T11:54:11.383Z,6480.00
2018-06-27T11:55:11.231Z,6328.00
2018-06-27T11:57:05.317Z,6024.00
2018-06-27T11:58:05.224Z,5872.00
2018-06-27T11:59:59.035Z,6632.00
2018-06-27T12:00:59.224Z,6988.00
2018-06-27T12:02:53.477Z,5576.00
2018-06-27T12:03:55.029Z,4884.00
2018-06-27T12:05:48.863Z,6416.00
2018-06-27T12:06:48.307Z,6832.00
2018-06-27T12:08:42.319Z,7500.00
2018-06-27T12:09:42.781Z,8040.00
2018-06-27T12:11:36.669Z,8648.00
2018-06-27T12:12:36.144Z,8700.00
2018-06-27T12:14:30.841Z,7696.00
2018-06-27T12:15:32.549Z,8684.00
2018-06-27T12:17:24.977Z,7608.00
2018-06-27T12:18:25.522Z,6656.00
2018-06-27T12:20:19.505Z,6752.00
2018-06-27T12:21:20.272Z,8608.00
2018-06-27T12:23:13.588Z,9020.00
2018-06-27T12:24:15.912Z,6740.00
2018-06-27T12:26:07.587Z,8184.00
2018-06-27T12:27:08.172Z,7976.00
2018-06-27T12:29:01.893Z,7768.00
2018-06-27T12:30:02.278Z,7524.00
2018-06-27T12:31:56.318Z,7340.00
2018-06-27T12:32:57.418Z,7528.00
2018-06-27T12:34:52.180Z,16012.00
2018-06-27T12:35:50.551Z,36704.00
2018-06-27T12:37:44.801Z,44128.00
2018-06-27T12:38:47.426Z,7152.00
2018-06-27T12:40:39.818Z,7672.00
2018-06-27T12:41:40.022Z,14264.00
2018-06-27T12:43:34.279Z,63872.00
2018-06-27T12:44:34.566Z,62400.00
2018-06-27T12:46:28.715Z,64320.00
2018-06-27T12:47:27.121Z,63968.00
2018-06-27T12:49:23.255Z,61408.00
2018-06-27T12:50:22.905Z,66176.00
2018-06-27T12:52:17.259Z,20320.00
2018-06-27T12:53:17.563Z,59936.00
2018-06-27T12:55:11.830Z,89120.00
2018-06-27T12:56:11.132Z,7536.00
2018-06-27T12:58:06.051Z,71872.00
2018-06-27T12:59:04.323Z,55936.00
2018-06-27T13:01:00.113Z,93120.00
2018-06-27T13:02:00.209Z,10316.00
2018-06-27T13:03:54.402Z,119232.00
2018-06-27T13:04:54.251Z,108704.00
2018-06-27T13:06:49.719Z,10328.00
2018-06-27T13:07:48.957Z,9228.00
2018-06-27T13:09:42.853Z,13988.00
2018-06-27T13:10:43.193Z,112992.00
2018-06-27T13:11:42.644Z,18464.00
2018-06-27T13:12:42.791Z,8772.00
2018-06-27T13:13:42.824Z,7416.00
2018-06-27T13:14:43.423Z,103872.00
2018-06-27T13:15:43.535Z,101344.00
2018-06-27T13:16:46.622Z,102560.00
2018-06-27T13:17:43.249Z,101664.00
2018-06-27T13:18:42.856Z,106016.00
2018-06-27T13:19:42.989Z,112256.00
2018-06-27T13:20:43.189Z,115584.00
2018-06-27T13:21:47.405Z,124736.00
2018-06-27T13:22:43.350Z,126976.00
2018-06-27T13:24:43.305Z,6856.00
2018-06-27T13:25:42.324Z,5788.00
2018-06-27T13:26:42.668Z,5572.00
2018-06-27T13:27:43.374Z,5524.00
2018-06-27T13:28:43.415Z,5652.00
2018-06-27T13:29:42.821Z,48256.00
2018-06-27T13:30:43.332Z,101728.00
2018-06-27T13:31:43.108Z,93440.00
2018-06-27T13:32:42.883Z,21536.00
2018-06-27T13:33:43.370Z,88736.00
2018-06-27T13:34:42.928Z,53152.00
2018-06-27T13:35:44.231Z,9596.00
2018-06-27T13:36:43.367Z,58432.00
2018-06-27T13:37:43.368Z,7476.00
2018-06-27T13:38:43.379Z,6716.00
2018-06-27T13:39:43.455Z,71168.00
2018-06-27T13:40:42.915Z,63104.00
2018-06-27T13:41:43.355Z,61472.00
2018-06-27T13:42:43.579Z,57216.00
2018-06-27T13:43:43.777Z,20480.00
2018-06-27T13:44:43.059Z,12932.00
2018-06-27T13:45:43.450Z,34752.00
2018-06-27T13:46:43.339Z,7196.00
2018-06-27T13:47:43.427Z,4844.00
2018-06-27T13:48:43.187Z,4028.00
2018-06-27T13:49:42.050Z,3912.00
2018-06-27T13:50:43.416Z,4328.00
2018-06-27T13:51:43.105Z,21088.00
2018-06-27T13:52:45.863Z,20256.00
2018-06-27T13:53:43.387Z,22400.00
2018-06-27T13:54:43.286Z,16484.00
2018-06-27T13:55:43.453Z,26624.00
2018-06-27T13:56:45.612Z,29216.00
2018-06-27T13:57:44.596Z,24704.00
2018-06-27T13:58:44.547Z,17792.00
2018-06-27T13:59:43.786Z,7900.00
2018-06-27T14:00:45.745Z,6548.00
2018-06-27T14:01:43.517Z,5780.00
2018-06-27T14:02:43.558Z,5012.00
2018-06-27T14:03:43.379Z,4688.00
2018-06-27T14:04:43.423Z,4900.00
2018-06-27T14:05:43.591Z,5572.00
2018-06-27T14:06:43.979Z,7620.00
2018-06-27T14:07:43.603Z,9208.00
2018-06-27T14:08:43.923Z,21280.00
2018-06-27T14:09:44.254Z,20224.00
2018-06-27T14:10:45.489Z,13684.00
2018-06-27T14:11:43.847Z,14208.00
2018-06-27T14:12:43.785Z,21408.00
2018-06-27T14:13:43.988Z,8340.00
2018-06-27T14:14:43.934Z,6656.00
2018-06-27T14:15:43.446Z,6548.00
2018-06-27T14:16:44.380Z,18656.00
2018-06-27T14:17:43.939Z,17824.00
2018-06-27T14:18:44.421Z,17376.00
2018-06-27T14:19:43.434Z,16832.00
2018-06-27T14:20:44.108Z,16616.00
2018-06-27T14:21:44.970Z,16864.00
2018-06-27T14:22:44.241Z,16852.00
2018-06-27T14:23:43.914Z,16868.00
2018-06-27T14:24:43.964Z,16708.00
2018-06-27T14:25:43.942Z,16140.00
2018-06-27T14:26:44.492Z,15656.00
2018-06-27T14:27:44.382Z,15552.00
2018-06-27T14:28:44.338Z,15672.00
2018-06-27T14:29:43.926Z,15228.00
2018-06-27T14:30:43.896Z,15904.00
2018-06-27T14:31:43.847Z,16160.00
2018-06-27T14:32:44.064Z,6516.00
2018-06-27T14:33:45.455Z,7852.00
2018-06-27T14:34:44.255Z,9628.00
2018-06-27T14:35:45.432Z,7868.00
2018-06-27T14:36:43.991Z,6764.00
2018-06-27T14:37:42.757Z,14584.00
2018-06-27T14:38:43.977Z,5976.00
2018-06-27T14:39:44.369Z,5388.00
2018-06-27T14:40:44.533Z,5052.00
2018-06-27T14:41:44.079Z,5008.00
2018-06-27T14:42:44.404Z,5404.00
2018-06-27T14:43:44.420Z,13980.00
2018-06-27T14:44:43.898Z,13744.00
2018-06-27T14:45:43.983Z,14020.00
2018-06-27T14:46:43.964Z,14028.00
2018-06-27T14:47:44.219Z,14172.00
2018-06-27T14:48:44.555Z,14420.00
2018-06-27T14:49:44.851Z,15660.00
2018-06-27T14:50:44.771Z,16272.00
2018-06-27T14:51:44.743Z,15468.00
2018-06-27T14:52:44.458Z,5980.00
2018-06-27T14:53:46.061Z,5740.00
2018-06-27T14:54:46.380Z,5728.00
2018-06-27T14:55:44.220Z,5796.00
2018-06-27T14:56:44.257Z,5636.00
2018-06-27T14:57:44.946Z,5332.00
2018-06-27T14:58:44.427Z,11396.00
2018-06-27T14:59:44.592Z,9460.00
2018-06-27T15:00:44.208Z,8532.00
2018-06-27T15:01:44.919Z,3944.00
2018-06-27T15:02:43.909Z,7408.00
2018-06-27T15:03:44.078Z,6440.00
2018-06-27T15:04:44.310Z,5968.00
2018-06-27T15:05:44.548Z,5648.00
2018-06-27T15:06:44.429Z,5464.00
2018-06-27T15:07:44.419Z,5492.00
2018-06-27T15:08:44.851Z,5552.00
2018-06-27T15:09:44.319Z,6252.00
2018-06-27T15:10:44.503Z,6916.00
2018-06-27T15:11:44.769Z,6756.00
2018-06-27T15:12:43.135Z,6844.00
2018-06-27T15:13:42.934Z,6632.00
2018-06-27T15:14:44.934Z,6384.00
2018-06-27T15:15:44.955Z,5092.00
2018-06-27T15:16:43.029Z,5152.00
2018-06-27T15:17:44.505Z,4884.00
2018-06-27T15:18:43.140Z,4568.00
2018-06-27T15:19:44.984Z,3972.00
2018-06-27T15:20:44.092Z,3692.00
2018-06-27T15:21:43.155Z,4860.00
2018-06-27T15:22:43.026Z,4036.00
2018-06-27T15:23:44.556Z,4748.00
2018-06-27T15:24:44.848Z,4492.00
2018-06-27T15:25:44.092Z,4480.00
2018-06-27T15:26:43.161Z,4548.00
2018-06-27T15:27:43.201Z,4492.00
2018-06-27T15:28:43.132Z,4424.00
2018-06-27T15:29:43.116Z,4344.00
2018-06-27T15:30:43.153Z,4284.00
2018-06-27T15:31:43.147Z,4308.00
2018-06-27T15:32:43.101Z,4400.00
2018-06-27T15:33:43.189Z,4512.00
2018-06-27T15:34:43.326Z,4568.00
2018-06-27T15:35:43.156Z,4464.00
2018-06-27T15:36:43.190Z,4424.00
2018-06-27T15:37:43.280Z,4656.00
2018-06-27T15:38:43.219Z,5108.00
2018-06-27T15:39:44.004Z,5188.00
2018-06-27T15:40:44.017Z,4840.00
2018-06-27T15:41:43.209Z,4448.00
2018-06-27T15:42:43.484Z,4292.00
2018-06-27T15:43:45.315Z,4312.00
2018-06-27T15:44:44.540Z,4456.00
2018-06-27T15:45:43.924Z,4708.00
2018-06-27T15:46:45.348Z,5000.00
2018-06-27T15:47:44.269Z,4668.00
2018-06-27T15:48:43.305Z,4876.00
2018-06-27T15:49:43.306Z,4616.00
2018-06-27T15:50:43.331Z,4420.00
2018-06-27T15:51:47.733Z,5084.00
2018-06-27T15:52:43.351Z,5140.00
2018-06-27T15:53:44.557Z,5160.00
2018-06-27T15:54:43.349Z,5480.00
2018-06-27T15:55:43.466Z,5384.00
2018-06-27T15:56:43.349Z,4776.00
2018-06-27T15:57:44.598Z,4392.00
2018-06-27T15:58:43.352Z,4048.00
2018-06-27T15:59:43.341Z,4368.00
2018-06-27T16:00:43.281Z,3564.00
2018-06-27T16:01:43.291Z,3416.00
2018-06-27T16:02:43.262Z,3448.00
2018-06-27T16:03:44.406Z,3444.00
2018-06-27T16:04:44.410Z,3336.00
2018-06-27T16:05:43.639Z,3192.00
2018-06-27T16:06:43.236Z,2872.00
2018-06-27T16:07:44.429Z,2832.00
2018-06-27T16:08:43.923Z,2868.00
2018-06-27T16:09:43.335Z,2960.00
2018-06-27T16:10:43.292Z,2992.00
2018-06-27T16:11:43.323Z,3092.00
2018-06-27T16:12:43.273Z,3168.00
2018-06-27T16:13:43.947Z,3000.00
2018-06-27T16:14:43.426Z,3108.00
2018-06-27T16:15:43.381Z,3088.00
2018-06-27T16:16:43.308Z,3020.00
2018-06-27T16:17:43.325Z,3044.00
2018-06-27T16:18:43.315Z,3052.00
2018-06-27T16:19:44.177Z,3312.00
2018-06-27T16:20:47.079Z,3588.00
2018-06-27T16:21:43.393Z,3932.00
2018-06-27T16:22:43.397Z,4504.00
2018-06-27T16:23:43.364Z,4940.00
2018-06-27T16:24:43.474Z,5336.00
2018-06-27T16:25:43.406Z,5436.00
2018-06-27T16:26:43.422Z,5332.00
2018-06-27T16:27:43.361Z,5184.00
2018-06-27T16:28:43.487Z,4980.00
2018-06-27T16:29:43.639Z,4996.00
2018-06-27T16:30:43.389Z,4780.00
2018-06-27T16:31:43.422Z,4148.00
2018-06-27T16:32:43.407Z,3676.00
2018-06-27T16:33:43.501Z,3480.00
2018-06-27T16:34:43.496Z,3264.00
2018-06-27T16:35:43.846Z,3072.00
2018-06-27T16:36:45.703Z,2968.00
2018-06-27T16:37:43.428Z,2852.00
2018-06-27T16:38:43.494Z,2536.00
2018-06-27T16:39:43.471Z,2652.00
2018-06-27T16:40:43.581Z,2592.00
2018-06-27T16:41:43.474Z,2548.00
2018-06-27T16:42:43.490Z,2508.00
2018-06-27T16:43:43.500Z,2496.00
2018-06-27T16:44:45.134Z,2496.00
2018-06-27T16:45:43.512Z,2500.00
2018-06-27T16:46:43.565Z,2496.00
2018-06-27T16:47:43.477Z,2528.00
2018-06-27T16:48:43.636Z,2584.00
2018-06-27T16:49:43.521Z,2604.00
2018-06-27T16:50:44.953Z,2752.00
2018-06-27T16:51:44.597Z,2920.00
2018-06-27T16:53:43.596Z,3208.00
2018-06-27T16:54:44.688Z,3300.00
2018-06-27T17:03:44.523Z,2800.00
2018-06-27T17:04:44.565Z,2872.00
2018-06-27T17:05:43.712Z,2908.00
2018-06-27T17:06:44.202Z,2848.00
2018-06-27T17:07:45.577Z,2924.00
2018-06-27T17:08:44.573Z,2944.00
2018-06-27T17:09:43.710Z,2424.00
2018-06-27T17:10:43.629Z,2188.00
2018-06-27T17:11:44.522Z,2064.00
2018-06-27T17:12:43.629Z,1844.00
2018-06-27T17:13:43.618Z,1640.00
2018-06-27T17:14:46.595Z,1532.00
2018-06-27T17:15:44.923Z,1468.00
2018-06-27T17:16:44.493Z,1424.00
2018-06-27T17:17:44.916Z,1396.00
2018-06-27T17:18:44.554Z,1396.00
2018-06-27T17:19:43.714Z,1404.00
2018-06-27T17:20:47.590Z,1420.00
2018-06-27T17:21:43.771Z,1472.00
2018-06-27T17:22:43.674Z,1524.00
2018-06-27T17:23:44.753Z,1524.00
2018-06-27T17:24:44.585Z,1528.00
2018-06-27T17:25:46.019Z,2032.00
2018-06-27T17:26:43.714Z,2032.00
2018-06-27T17:27:43.668Z,1988.00
2018-06-27T17:28:43.729Z,1820.00
2018-06-27T17:29:45.760Z,1628.00
2018-06-27T17:30:44.961Z,1748.00
2018-06-27T17:31:44.064Z,1788.00
2018-06-27T17:32:43.716Z,1732.00
2018-06-27T17:33:44.780Z,1864.00
2018-06-27T17:34:44.924Z,1920.00
2018-06-27T17:35:44.863Z,1720.00
2018-06-27T17:36:44.959Z,1636.00
2018-06-27T17:37:44.584Z,1592.00
2018-06-27T17:38:44.842Z,1448.00
2018-06-27T17:39:45.123Z,1200.00
2018-06-27T17:40:45.191Z,1100.00
2018-06-27T17:41:45.518Z,1060.00
2018-06-27T17:42:44.886Z,1100.00
2018-06-27T17:43:45.057Z,1040.00
2018-06-27T17:44:43.822Z,1028.00
2018-06-27T17:45:43.767Z,1004.00
2018-06-27T17:46:43.814Z,1032.00
2018-06-27T17:47:58.708Z,1072.00
2018-06-27T17:48:58.562Z,1116.00
2018-06-27T17:49:44.515Z,1188.00
2018-06-27T17:50:43.986Z,1200.00
2018-06-27T17:51:43.812Z,1156.00
2018-06-27T17:52:43.973Z,1196.00
2018-06-27T17:53:44.004Z,1324.00
2018-06-27T17:54:44.188Z,1380.00
2018-06-27T17:55:44.007Z,1348.00
2018-06-27T17:56:45.587Z,1268.00
2018-06-27T17:57:44.521Z,1272.00
2018-06-27T17:58:43.884Z,1356.00
2018-06-27T17:59:43.849Z,1388.00
2018-06-27T18:00:44.445Z,1360.00
2018-06-27T18:01:43.899Z,1176.00
2018-06-27T18:02:43.872Z,1160.00
2018-06-27T18:03:43.872Z,1216.00
2018-06-27T18:04:43.855Z,1240.00
2018-06-27T18:05:43.873Z,1248.00
2018-06-27T18:06:44.339Z,1264.00
2018-06-27T18:07:44.564Z,1216.00
2018-06-27T18:08:43.901Z,1308.00
2018-06-27T18:09:46.466Z,1340.00
2018-06-27T18:10:43.939Z,1312.00
2018-06-27T18:11:44.153Z,1340.00
2018-06-27T18:12:45.091Z,1320.00
2018-06-27T18:13:44.753Z,1276.00
2018-06-27T18:14:43.949Z,1232.00
2018-06-27T18:15:43.977Z,1180.00
2018-06-27T18:16:43.983Z,1080.00
2018-06-27T18:17:44.941Z,1096.00
2018-06-27T18:18:43.945Z,1100.00
2018-06-27T18:19:44.921Z,1128.00
2018-06-27T18:20:43.940Z,920.00
2018-06-27T18:21:43.955Z,848.00
2018-06-27T18:22:44.001Z,932.00
2018-06-27T18:23:43.973Z,1012.00
2018-06-27T18:24:44.678Z,1004.00
2018-06-27T18:25:43.962Z,932.00
2018-06-27T18:26:44.647Z,944.00
2018-06-27T18:27:43.971Z,980.00
2018-06-27T18:28:45.019Z,860.00
2018-06-27T18:29:44.142Z,792.00
2018-06-27T18:30:44.507Z,732.00
2018-06-27T18:31:44.000Z,808.00
2018-06-27T18:32:44.012Z,812.00
2018-06-27T18:33:44.802Z,684.00
2018-06-27T18:34:44.042Z,696.00
2018-06-27T18:35:44.032Z,692.00
2018-06-27T18:36:44.042Z,680.00
2018-06-27T18:37:44.080Z,744.00
2018-06-27T18:38:45.385Z,716.00
2018-06-27T18:39:44.050Z,676.00
2018-06-27T18:40:44.033Z,672.00
2018-06-27T18:41:44.050Z,704.00
2018-06-27T18:42:44.034Z,748.00
2018-06-27T18:43:44.090Z,744.00
2018-06-27T18:44:44.023Z,776.00
2018-06-27T18:45:44.034Z,776.00
2018-06-27T18:46:44.034Z,768.00
2018-06-27T18:47:44.066Z,716.00
2018-06-27T18:48:44.082Z,644.00
2018-06-27T18:49:44.042Z,624.00
2018-06-27T18:50:44.057Z,636.00
2018-06-27T18:51:44.054Z,612.00
2018-06-27T18:52:44.080Z,600.00
2018-06-27T18:53:44.058Z,568.00
2018-06-27T18:54:44.050Z,552.00
2018-06-27T18:55:44.096Z,536.00
2018-06-27T18:56:44.419Z,528.00
2018-06-27T18:57:44.062Z,520.00
2018-06-27T18:58:44.180Z,508.00
2018-06-27T18:59:44.093Z,500.00
2018-06-27T19:00:44.269Z,488.00
2018-06-27T19:01:44.624Z,488.00
2018-06-27T19:02:44.694Z,480.00
2018-06-27T19:03:44.108Z,480.00
2018-06-27T19:04:44.491Z,480.00
2018-06-27T19:05:44.133Z,480.00
2018-06-27T19:06:44.128Z,480.00
2018-06-27T19:07:46.121Z,476.00
2018-06-27T19:08:44.141Z,468.00
2018-06-27T19:09:44.139Z,452.00
2018-06-27T19:10:44.151Z,432.00
2018-06-27T19:11:44.182Z,412.00
2018-06-27T19:12:44.142Z,396.00
2018-06-27T19:13:44.270Z,380.00
2018-06-27T19:14:44.122Z,364.00
2018-06-27T19:15:44.164Z,352.00
2018-06-27T19:16:44.150Z,340.00
2018-06-27T19:17:44.181Z,332.00
2018-06-27T19:18:44.155Z,320.00
2018-06-27T19:19:44.156Z,312.00
2018-06-27T19:20:44.151Z,304.00
2018-06-27T19:21:44.266Z,300.00
2018-06-27T19:22:44.184Z,292.00
2018-06-27T19:23:44.185Z,284.00
2018-06-27T19:24:44.176Z,280.00
2018-06-27T19:25:44.182Z,268.00
2018-06-27T19:26:44.158Z,260.00
2018-06-27T19:27:44.170Z,256.00
2018-06-27T19:28:44.163Z,248.00
2018-06-27T19:29:44.198Z,240.00
2018-06-27T19:30:44.383Z,232.00
2018-06-27T19:31:44.212Z,228.00
2018-06-27T19:32:44.198Z,216.00